sensor_id;sensor_type;location;lat;lon;timestamp;pressure;altitude;pressure_sealevel;temperature;humidity
38558;BME280;24333;42.626;23.308;2023-03-21T01:11:16;92037.53;;;7.86;74.33
38558;BME280;24333;42.626;23.308;2023-03-21T05:59:09;91988.63;;;8.63;83.39
38558;BME280;24333;42.626;23.308;2023-03-21T06:01:41;92016.19;;;8.92;78.58
38558;BME280;24333;42.626;23.308;2023-03-21T06:04:14;91996.81;;;8.97;77.89
38558;BME280;24333;42.626;23.308;2023-03-21T06:07:01;91996.69;;;9.17;72.13
38558;BME280;24333;42.626;23.308;2023-03-21T06:09:53;91994.09;;;9.32;74.54
38558;BME280;24333;42.626;23.308;2023-03-21T06:12:18;92002.56;;;9.57;76.51
38558;BME280;24333;42.626;23.308;2023-03-21T06:14:44;92007.41;;;9.78;75.17
38558;BME280;24333;42.626;23.308;2023-03-21T06:17:10;92006.00;;;9.95;72.74
38558;BME280;24333;42.626;23.308;2023-03-21T06:19:36;91999.16;;;10.16;72.05
38558;BME280;24333;42.626;23.308;2023-03-21T06:22:01;91992.63;;;10.28;68.72
38558;BME280;24333;42.626;23.308;2023-03-21T06:24:29;91999.47;;;10.56;67.04
38558;BME280;24333;42.626;23.308;2023-03-21T07:21:08;92021.03;;;11.75;63.78
38558;BME280;24333;42.626;23.308;2023-03-21T07:23:33;92024.50;;;11.65;62.49
38558;BME280;24333;42.626;23.308;2023-03-21T07:25:59;92025.66;;;11.60;63.09
38558;BME280;24333;42.626;23.308;2023-03-21T07:28:27;92037.00;;;11.66;62.50
38558;BME280;24333;42.626;23.308;2023-03-21T07:30:57;92037.03;;;11.73;63.03
38558;BME280;24333;42.626;23.308;2023-03-21T08:20:22;92016.81;;;12.28;57.80
38558;BME280;24333;42.626;23.308;2023-03-21T08:22:50;92021.50;;;12.42;57.72
38558;BME280;24333;42.626;23.308;2023-03-21T08:25:19;92037.94;;;12.46;57.48
38558;BME280;24333;42.626;23.308;2023-03-21T08:27:46;92022.69;;;12.45;57.50
38558;BME280;24333;42.626;23.308;2023-03-21T08:30:16;92010.16;;;12.58;56.03
38558;BME280;24333;42.626;23.308;2023-03-21T08:32:42;92030.06;;;12.70;55.63
38558;BME280;24333;42.626;23.308;2023-03-21T08:35:10;92008.63;;;12.61;55.44
38558;BME280;24333;42.626;23.308;2023-03-21T08:37:37;91993.75;;;12.55;55.64
38558;BME280;24333;42.626;23.308;2023-03-21T08:40:04;92016.41;;;12.77;55.66
38558;BME280;24333;42.626;23.308;2023-03-21T08:42:43;92003.50;;;12.78;55.45
38558;BME280;24333;42.626;23.308;2023-03-21T08:45:10;92035.13;;;12.86;54.67
38558;BME280;24333;42.626;23.308;2023-03-21T08:50:15;92021.78;;;13.06;54.21
38558;BME280;24333;42.626;23.308;2023-03-21T08:52:41;91990.50;;;13.07;52.96
38558;BME280;24333;42.626;23.308;2023-03-21T08:55:07;92001.44;;;13.22;51.81
38558;BME280;24333;42.626;23.308;2023-03-21T08:57:33;92013.16;;;13.29;51.98
38558;BME280;24333;42.626;23.308;2023-03-21T08:59:59;92031.94;;;13.24;51.29
38558;BME280;24333;42.626;23.308;2023-03-21T16:34:17;91807.03;;;9.66;100.00
38558;BME280;24333;42.626;23.308;2023-03-21T16:36:43;91805.03;;;9.60;100.00
38558;BME280;24333;42.626;23.308;2023-03-21T16:39:20;91812.41;;;9.55;100.00
38558;BME280;24333;42.626;23.308;2023-03-21T16:41:47;91804.94;;;9.49;100.00
38558;BME280;24333;42.626;23.308;2023-03-21T16:44:13;91794.47;;;9.47;100.00
38558;BME280;24333;42.626;23.308;2023-03-21T16:46:39;91785.44;;;9.39;100.00
38558;BME280;24333;42.626;23.308;2023-03-21T16:49:04;91790.53;;;9.41;100.00
38558;BME280;24333;42.626;23.308;2023-03-21T16:51:41;91777.19;;;9.25;100.00
38558;BME280;24333;42.626;23.308;2023-03-21T16:54:06;91783.06;;;9.31;100.00
38558;BME280;24333;42.626;23.308;2023-03-21T16:56:42;91772.53;;;9.25;100.00
38558;BME280;24333;42.626;23.308;2023-03-21T16:59:12;91782.28;;;9.34;100.00
38558;BME280;24333;42.626;23.308;2023-03-21T17:01:39;91781.50;;;9.30;100.00
38558;BME280;24333;42.626;23.308;2023-03-21T17:20:33;91797.84;;;9.37;100.00
38558;BME280;24333;42.626;23.308;2023-03-21T17:23:43;91802.56;;;9.40;100.00
38558;BME280;24333;42.626;23.308;2023-03-21T17:26:15;91786.13;;;9.25;100.00
38558;BME280;24333;42.626;23.308;2023-03-21T19:30:15;91849.13;;;8.52;100.00
38558;BME280;24333;42.626;23.308;2023-03-21T19:32:41;91842.19;;;8.55;100.00
38558;BME280;24333;42.626;23.308;2023-03-21T19:35:07;91850.69;;;8.53;100.00
38558;BME280;24333;42.626;23.308;2023-03-21T19:37:32;91856.94;;;8.57;100.00
38558;BME280;24333;42.626;23.308;2023-03-21T19:40:00;91845.22;;;8.49;100.00
38558;BME280;24333;42.626;23.308;2023-03-21T19:42:25;91857.28;;;8.52;100.00
38558;BME280;24333;42.626;23.308;2023-03-21T19:47:40;91834.94;;;8.35;100.00
38558;BME280;24333;42.626;23.308;2023-03-21T19:50:06;91849.28;;;8.36;100.00
38558;BME280;24333;42.626;23.308;2023-03-21T19:52:32;91859.81;;;8.37;100.00
38558;BME280;24333;42.626;23.308;2023-03-21T20:01:54;91856.75;;;8.43;100.00
38558;BME280;24333;42.626;23.308;2023-03-21T20:04:31;91846.16;;;8.34;100.00
38558;BME280;24333;42.626;23.308;2023-03-21T20:07:00;91857.81;;;8.34;100.00
38558;BME280;24333;42.626;23.308;2023-03-21T20:09:46;91856.69;;;8.35;100.00
38558;BME280;24333;42.626;23.308;2023-03-21T20:12:12;91836.31;;;8.22;100.00
38558;BME280;24333;42.626;23.308;2023-03-21T20:15:09;91848.06;;;8.30;100.00
38558;BME280;24333;42.626;23.308;2023-03-21T20:17:38;91833.16;;;8.16;100.00
38558;BME280;24333;42.626;23.308;2023-03-21T20:20:19;91833.09;;;8.13;100.00
38558;BME280;24333;42.626;23.308;2023-03-21T20:22:47;91841.41;;;8.23;100.00
38558;BME280;24333;42.626;23.308;2023-03-21T20:28:47;91841.81;;;8.25;100.00
38558;BME280;24333;42.626;23.308;2023-03-21T20:31:15;91845.28;;;8.26;100.00
38558;BME280;24333;42.626;23.308;2023-03-21T20:33:41;91832.78;;;8.18;100.00
38558;BME280;24333;42.626;23.308;2023-03-21T20:36:07;91845.66;;;8.24;100.00
38558;BME280;24333;42.626;23.308;2023-03-21T20:38:34;91851.19;;;8.32;100.00
38558;BME280;24333;42.626;23.308;2023-03-21T20:41:02;91835.22;;;8.27;100.00
38558;BME280;24333;42.626;23.308;2023-03-21T20:43:28;91850.09;;;8.36;100.00
38558;BME280;24333;42.626;23.308;2023-03-21T21:17:36;91847.97;;;8.22;100.00
38558;BME280;24333;42.626;23.308;2023-03-21T21:20:07;91863.94;;;8.28;100.00
38558;BME280;24333;42.626;23.308;2023-03-21T21:22:46;91853.81;;;8.24;100.00
38558;BME280;24333;42.626;23.308;2023-03-21T21:25:13;91856.75;;;8.12;100.00
38558;BME280;24333;42.626;23.308;2023-03-21T21:27:39;91857.13;;;8.10;100.00
38558;BME280;24333;42.626;23.308;2023-03-21T21:33:52;91869.44;;;8.31;100.00
38558;BME280;24333;42.626;23.308;2023-03-21T21:36:18;91862.84;;;8.32;100.00
38558;BME280;24333;42.626;23.308;2023-03-21T21:38:45;91849.22;;;8.29;100.00
38558;BME280;24333;42.626;23.308;2023-03-21T21:41:21;91855.31;;;8.18;100.00
38558;BME280;24333;42.626;23.308;2023-03-21T21:46:23;91846.03;;;7.92;100.00
38558;BME280;24333;42.626;23.308;2023-03-21T21:48:49;91836.91;;;7.77;100.00
38558;BME280;24333;42.626;23.308;2023-03-21T21:51:15;91832.00;;;7.60;100.00
38558;BME280;24333;42.626;23.308;2023-03-21T21:54:00;91868.91;;;7.64;100.00
38558;BME280;24333;42.626;23.308;2023-03-21T21:56:28;91856.38;;;7.56;100.00
38558;BME280;24333;42.626;23.308;2023-03-21T21:59:30;91874.69;;;7.63;100.00
38558;BME280;24333;42.626;23.308;2023-03-21T22:01:56;91870.28;;;7.55;100.00
38558;BME280;24333;42.626;23.308;2023-03-21T22:04:24;91851.19;;;7.47;100.00
38558;BME280;24333;42.626;23.308;2023-03-21T22:06:55;91861.84;;;7.60;100.00
